sensor_id;sensor_type;location;lat;lon;timestamp;temperature;humidity
27559;DHT22;15002;52.028;5.670;2023-12-20T00:01:00;9.60;99.90
27559;DHT22;15002;52.028;5.670;2023-12-20T00:03:26;9.60;99.90
27559;DHT22;15002;52.028;5.670;2023-12-20T00:05:51;9.60;99.90
27559;DHT22;15002;52.028;5.670;2023-12-20T00:08:17;9.60;99.90
27559;DHT22;15002;52.028;5.670;2023-12-20T00:10:44;9.70;99.90
27559;DHT22;15002;52.028;5.670;2023-12-20T00:13:10;9.60;99.90
27559;DHT22;15002;52.028;5.670;2023-12-20T00:15:35;9.60;99.90
27559;DHT22;15002;52.028;5.670;2023-12-20T00:18:01;9.50;99.90
27559;DHT22;15002;52.028;5.670;2023-12-20T00:20:28;9.60;99.90
27559;DHT22;15002;52.028;5.670;2023-12-20T00:22:56;9.50;99.90
27559;DHT22;15002;52.028;5.670;2023-12-20T00:25:22;9.40;99.90
27559;DHT22;15002;52.028;5.670;2023-12-20T00:27:47;9.50;99.90
27559;DHT22;15002;52.028;5.670;2023-12-20T00:30:13;9.30;99.90
27559;DHT22;15002;52.028;5.670;2023-12-20T00:32:38;9.30;99.90
27559;DHT22;15002;52.028;5.670;2023-12-20T00:35:04;9.40;99.90
27559;DHT22;15002;52.028;5.670;2023-12-20T00:37:30;9.40;99.90
27559;DHT22;15002;52.028;5.670;2023-12-20T00:39:56;9.40;99.90
27559;DHT22;15002;52.028;5.670;2023-12-20T00:42:21;9.60;99.90
27559;DHT22;15002;52.028;5.670;2023-12-20T00:44:47;9.40;99.90
27559;DHT22;15002;52.028;5.670;2023-12-20T00:47:12;9.30;99.90
27559;DHT22;15002;52.028;5.670;2023-12-20T00:49:38;9.40;99.90
27559;DHT22;15002;52.028;5.670;2023-12-20T00:52:04;9.40;99.90
27559;DHT22;15002;52.028;5.670;2023-12-20T00:54:30;9.20;99.90
27559;DHT22;15002;52.028;5.670;2023-12-20T00:56:56;9.10;99.90
27559;DHT22;15002;52.028;5.670;2023-12-20T00:59:21;9.00;99.90
27559;DHT22;15002;52.028;5.670;2023-12-20T01:01:47;9.00;99.90
27559;DHT22;15002;52.028;5.670;2023-12-20T01:04:13;8.90;99.90
27559;DHT22;15002;52.028;5.670;2023-12-20T01:06:38;8.80;99.90
27559;DHT22;15002;52.028;5.670;2023-12-20T01:09:04;8.70;99.90
27559;DHT22;15002;52.028;5.670;2023-12-20T01:11:30;8.60;99.90
27559;DHT22;15002;52.028;5.670;2023-12-20T01:13:55;8.70;99.90
27559;DHT22;15002;52.028;5.670;2023-12-20T01:16:21;8.60;99.90
27559;DHT22;15002;52.028;5.670;2023-12-20T01:18:46;8.60;99.90
27559;DHT22;15002;52.028;5.670;2023-12-20T01:21:12;8.70;99.90
27559;DHT22;15002;52.028;5.670;2023-12-20T01:23:38;8.60;99.90
27559;DHT22;15002;52.028;5.670;2023-12-20T01:26:03;8.60;99.90
27559;DHT22;15002;52.028;5.670;2023-12-20T01:28:30;8.50;99.90
27559;DHT22;15002;52.028;5.670;2023-12-20T01:30:57;8.40;99.90
27559;DHT22;15002;52.028;5.670;2023-12-20T01:33:23;8.50;99.90
27559;DHT22;15002;52.028;5.670;2023-12-20T01:35:48;8.50;99.90
27559;DHT22;15002;52.028;5.670;2023-12-20T01:38:14;8.40;99.90
27559;DHT22;15002;52.028;5.670;2023-12-20T01:40:40;8.50;99.90
27559;DHT22;15002;52.028;5.670;2023-12-20T01:43:07;8.40;99.90
27559;DHT22;15002;52.028;5.670;2023-12-20T01:45:34;8.50;99.90
27559;DHT22;15002;52.028;5.670;2023-12-20T01:48:00;8.50;99.90
27559;DHT22;15002;52.028;5.670;2023-12-20T01:50:28;8.50;99.90
27559;DHT22;15002;52.028;5.670;2023-12-20T01:52:55;8.50;99.90
27559;DHT22;15002;52.028;5.670;2023-12-20T01:55:23;8.40;99.90
27559;DHT22;15002;52.028;5.670;2023-12-20T01:57:49;8.50;99.90
27559;DHT22;15002;52.028;5.670;2023-12-20T02:00:16;8.50;99.90
27559;DHT22;15002;52.028;5.670;2023-12-20T02:02:43;8.40;99.90
27559;DHT22;15002;52.028;5.670;2023-12-20T02:05:09;8.40;99.90
27559;DHT22;15002;52.028;5.670;2023-12-20T02:07:36;8.40;99.90
27559;DHT22;15002;52.028;5.670;2023-12-20T02:10:02;8.40;99.90
27559;DHT22;15002;52.028;5.670;2023-12-20T02:12:29;8.40;99.90
27559;DHT22;15002;52.028;5.670;2023-12-20T02:14:55;8.40;99.90
27559;DHT22;15002;52.028;5.670;2023-12-20T02:17:22;8.40;99.90
27559;DHT22;15002;52.028;5.670;2023-12-20T02:19:49;8.40;99.90
27559;DHT22;15002;52.028;5.670;2023-12-20T02:22:14;8.50;99.90
27559;DHT22;15002;52.028;5.670;2023-12-20T02:24:40;8.40;99.90
27559;DHT22;15002;52.028;5.670;2023-12-20T02:27:07;8.50;99.90
27559;DHT22;15002;52.028;5.670;2023-12-20T02:29:36;8.60;99.90
27559;DHT22;15002;52.028;5.670;2023-12-20T02:32:02;8.70;99.90
27559;DHT22;15002;52.028;5.670;2023-12-20T02:34:28;8.70;99.90
27559;DHT22;15002;52.028;5.670;2023-12-20T02:36:54;8.50;99.90
27559;DHT22;15002;52.028;5.670;2023-12-20T02:39:20;8.50;99.90
27559;DHT22;15002;52.028;5.670;2023-12-20T02:41:46;8.60;99.90
27559;DHT22;15002;52.028;5.670;2023-12-20T02:44:12;8.70;99.90
27559;DHT22;15002;52.028;5.670;2023-12-20T02:46:37;8.70;99.90
27559;DHT22;15002;52.028;5.670;2023-12-20T02:49:03;8.60;99.90
27559;DHT22;15002;52.028;5.670;2023-12-20T02:51:29;8.60;99.90
27559;DHT22;15002;52.028;5.670;2023-12-20T02:53:54;8.60;99.90
27559;DHT22;15002;52.028;5.670;2023-12-20T02:56:20;8.50;99.90
27559;DHT22;15002;52.028;5.670;2023-12-20T02:58:45;8.60;99.90
27559;DHT22;15002;52.028;5.670;2023-12-20T03:01:11;8.60;99.90
27559;DHT22;15002;52.028;5.670;2023-12-20T03:03:37;8.60;99.90
27559;DHT22;15002;52.028;5.670;2023-12-20T03:06:02;8.60;99.90
27559;DHT22;15002;52.028;5.670;2023-12-20T03:08:28;8.40;99.90
27559;DHT22;15002;52.028;5.670;2023-12-20T03:10:54;8.30;99.90
27559;DHT22;15002;52.028;5.670;2023-12-20T03:13:19;8.30;99.90
27559;DHT22;15002;52.028;5.670;2023-12-20T03:15:45;8.40;99.90
27559;DHT22;15002;52.028;5.670;2023-12-20T03:18:11;8.40;99.90
27559;DHT22;15002;52.028;5.670;2023-12-20T03:20:37;8.50;99.90
27559;DHT22;15002;52.028;5.670;2023-12-20T03:23:03;8.50;99.90
27559;DHT22;15002;52.028;5.670;2023-12-20T03:25:29;8.40;99.90
27559;DHT22;15002;52.028;5.670;2023-12-20T03:27:54;8.40;99.90
27559;DHT22;15002;52.028;5.670;2023-12-20T03:30:20;8.40;99.90
27559;DHT22;15002;52.028;5.670;2023-12-20T03:32:47;8.40;99.90
27559;DHT22;15002;52.028;5.670;2023-12-20T03:35:12;8.50;99.90
27559;DHT22;15002;52.028;5.670;2023-12-20T03:37:38;8.50;99.90
27559;DHT22;15002;52.028;5.670;2023-12-20T03:40:04;8.60;99.90
27559;DHT22;15002;52.028;5.670;2023-12-20T03:42:30;8.50;99.90
27559;DHT22;15002;52.028;5.670;2023-12-20T03:44:56;8.50;99.90
27559;DHT22;15002;52.028;5.670;2023-12-20T03:47:22;8.50;99.90
27559;DHT22;15002;52.028;5.670;2023-12-20T03:49:47;8.60;99.90
27559;DHT22;15002;52.028;5.670;2023-12-20T03:52:13;8.50;99.90
27559;DHT22;15002;52.028;5.670;2023-12-20T03:54:39;8.50;99.90
27559;DHT22;15002;52.028;5.670;2023-12-20T03:57:05;8.60;99.90
27559;DHT22;15002;52.028;5.670;2023-12-20T03:59:35;8.70;99.90
27559;DHT22;15002;52.028;5.670;2023-12-20T04:02:01;8.70;99.90
27559;DHT22;15002;52.028;5.670;2023-12-20T04:04:27;8.70;99.90
27559;DHT22;15002;52.028;5.670;2023-12-20T04:06:53;8.70;99.90
27559;DHT22;15002;52.028;5.670;2023-12-20T04:09:18;8.80;99.90
27559;DHT22;15002;52.028;5.670;2023-12-20T04:11:44;8.90;99.90
27559;DHT22;15002;52.028;5.670;2023-12-20T04:14:09;8.80;99.90
27559;DHT22;15002;52.028;5.670;2023-12-20T04:16:35;8.90;99.90
27559;DHT22;15002;52.028;5.670;2023-12-20T04:19:01;8.80;99.90
27559;DHT22;15002;52.028;5.670;2023-12-20T04:21:27;8.90;99.90
27559;DHT22;15002;52.028;5.670;2023-12-20T04:23:53;8.90;99.90
27559;DHT22;15002;52.028;5.670;2023-12-20T04:26:18;9.00;99.90
27559;DHT22;15002;52.028;5.670;2023-12-20T04:28:44;8.90;99.90
27559;DHT22;15002;52.028;5.670;2023-12-20T04:31:10;8.90;99.90
27559;DHT22;15002;52.028;5.670;2023-12-20T04:33:35;9.20;99.90
27559;DHT22;15002;52.028;5.670;2023-12-20T04:36:01;9.00;99.90
27559;DHT22;15002;52.028;5.670;2023-12-20T04:38:26;8.90;99.90
27559;DHT22;15002;52.028;5.670;2023-12-20T04:40:52;8.80;99.90
27559;DHT22;15002;52.028;5.670;2023-12-20T04:43:18;8.70;99.90
27559;DHT22;15002;52.028;5.670;2023-12-20T04:45:43;9.10;99.90
27559;DHT22;15002;52.028;5.670;2023-12-20T04:48:09;9.30;99.90
27559;DHT22;15002;52.028;5.670;2023-12-20T04:50:34;9.40;99.90
27559;DHT22;15002;52.028;5.670;2023-12-20T04:53:00;9.50;99.90
27559;DHT22;15002;52.028;5.670;2023-12-20T04:55:26;9.50;99.90
27559;DHT22;15002;52.028;5.670;2023-12-20T04:57:52;9.50;99.90
27559;DHT22;15002;52.028;5.670;2023-12-20T05:00:17;9.40;99.90
27559;DHT22;15002;52.028;5.670;2023-12-20T05:02:43;9.60;99.90
27559;DHT22;15002;52.028;5.670;2023-12-20T05:05:09;9.60;99.90
27559;DHT22;15002;52.028;5.670;2023-12-20T05:07:35;9.80;99.90
27559;DHT22;15002;52.028;5.670;2023-12-20T05:10:02;9.60;99.90
27559;DHT22;15002;52.028;5.670;2023-12-20T05:12:30;9.60;99.90
27559;DHT22;15002;52.028;5.670;2023-12-20T05:14:55;9.60;99.90
27559;DHT22;15002;52.028;5.670;2023-12-20T05:17:21;9.50;99.90
27559;DHT22;15002;52.028;5.670;2023-12-20T05:19:47;9.60;99.90
27559;DHT22;15002;52.028;5.670;2023-12-20T05:22:12;9.50;99.90
27559;DHT22;15002;52.028;5.670;2023-12-20T05:24:38;9.40;99.90
27559;DHT22;15002;52.028;5.670;2023-12-20T05:27:04;9.60;99.90
27559;DHT22;15002;52.028;5.670;2023-12-20T05:29:30;9.50;99.90
27559;DHT22;15002;52.028;5.670;2023-12-20T05:31:55;9.60;99.90
27559;DHT22;15002;52.028;5.670;2023-12-20T05:34:21;9.80;99.90
27559;DHT22;15002;52.028;5.670;2023-12-20T05:36:46;10.00;99.90
27559;DHT22;15002;52.028;5.670;2023-12-20T05:39:12;9.80;99.90
27559;DHT22;15002;52.028;5.670;2023-12-20T05:41:38;9.80;99.90
27559;DHT22;15002;52.028;5.670;2023-12-20T05:44:03;9.80;99.90
27559;DHT22;15002;52.028;5.670;2023-12-20T05:46:29;9.90;99.90
27559;DHT22;15002;52.028;5.670;2023-12-20T05:48:54;10.10;99.90
27559;DHT22;15002;52.028;5.670;2023-12-20T05:51:20;10.00;99.90
27559;DHT22;15002;52.028;5.670;2023-12-20T05:53:46;9.80;99.90
27559;DHT22;15002;52.028;5.670;2023-12-20T05:56:11;10.00;99.90
27559;DHT22;15002;52.028;5.670;2023-12-20T05:58:47;9.90;99.90
27559;DHT22;15002;52.028;5.670;2023-12-20T06:01:14;10.00;99.90
27559;DHT22;15002;52.028;5.670;2023-12-20T06:03:48;10.40;99.90
27559;DHT22;15002;52.028;5.670;2023-12-20T06:06:14;10.30;99.90
27559;DHT22;15002;52.028;5.670;2023-12-20T06:08:40;10.00;99.90
27559;DHT22;15002;52.028;5.670;2023-12-20T06:11:06;9.90;99.90
27559;DHT22;15002;52.028;5.670;2023-12-20T06:13:32;9.90;99.90
27559;DHT22;15002;52.028;5.670;2023-12-20T06:15:57;9.70;99.90
27559;DHT22;15002;52.028;5.670;2023-12-20T06:18:23;9.80;99.90
27559;DHT22;15002;52.028;5.670;2023-12-20T06:20:50;9.70;99.90
27559;DHT22;15002;52.028;5.670;2023-12-20T06:23:15;10.00;99.90
27559;DHT22;15002;52.028;5.670;2023-12-20T06:25:41;10.00;99.90
27559;DHT22;15002;52.028;5.670;2023-12-20T06:28:07;9.90;99.90
27559;DHT22;15002;52.028;5.670;2023-12-20T06:30:33;9.90;99.90
27559;DHT22;15002;52.028;5.670;2023-12-20T06:32:59;9.90;99.90
27559;DHT22;15002;52.028;5.670;2023-12-20T06:35:25;9.80;99.90
27559;DHT22;15002;52.028;5.670;2023-12-20T06:37:50;9.90;99.90
27559;DHT22;15002;52.028;5.670;2023-12-20T06:40:16;10.00;99.90
27559;DHT22;15002;52.028;5.670;2023-12-20T06:42:42;9.70;99.90
27559;DHT22;15002;52.028;5.670;2023-12-20T06:45:08;9.60;99.90
27559;DHT22;15002;52.028;5.670;2023-12-20T06:47:34;9.60;99.90
27559;DHT22;15002;52.028;5.670;2023-12-20T06:50:00;9.70;99.90
27559;DHT22;15002;52.028;5.670;2023-12-20T06:52:26;9.60;99.90
27559;DHT22;15002;52.028;5.670;2023-12-20T06:54:52;9.50;99.90
27559;DHT22;15002;52.028;5.670;2023-12-20T06:57:17;9.40;99.90
27559;DHT22;15002;52.028;5.670;2023-12-20T06:59:45;9.60;99.90
27559;DHT22;15002;52.028;5.670;2023-12-20T07:02:10;9.60;99.90
27559;DHT22;15002;52.028;5.670;2023-12-20T07:04:40;9.70;99.90
27559;DHT22;15002;52.028;5.670;2023-12-20T07:07:05;9.90;99.90
27559;DHT22;15002;52.028;5.670;2023-12-20T07:09:32;9.60;99.90
27559;DHT22;15002;52.028;5.670;2023-12-20T07:11:58;9.80;99.90
27559;DHT22;15002;52.028;5.670;2023-12-20T07:14:24;9.80;99.90
27559;DHT22;15002;52.028;5.670;2023-12-20T07:16:49;9.70;99.90
27559;DHT22;15002;52.028;5.670;2023-12-20T07:19:15;9.40;99.90
27559;DHT22;15002;52.028;5.670;2023-12-20T07:21:41;9.50;99.90
27559;DHT22;15002;52.028;5.670;2023-12-20T07:24:06;9.70;99.90
27559;DHT22;15002;52.028;5.670;2023-12-20T07:26:32;9.70;99.90
27559;DHT22;15002;52.028;5.670;2023-12-20T07:28:59;9.50;99.90
27559;DHT22;15002;52.028;5.670;2023-12-20T07:31:24;9.60;99.90
27559;DHT22;15002;52.028;5.670;2023-12-20T07:33:50;9.70;99.90
27559;DHT22;15002;52.028;5.670;2023-12-20T07:36:16;9.60;99.90
27559;DHT22;15002;52.028;5.670;2023-12-20T07:38:41;9.80;99.90
27559;DHT22;15002;52.028;5.670;2023-12-20T07:41:10;9.70;99.90
27559;DHT22;15002;52.028;5.670;2023-12-20T07:43:36;10.00;99.90
27559;DHT22;15002;52.028;5.670;2023-12-20T07:46:08;10.20;99.90
27559;DHT22;15002;52.028;5.670;2023-12-20T07:48:37;9.90;99.90
27559;DHT22;15002;52.028;5.670;2023-12-20T07:51:04;10.00;99.90
27559;DHT22;15002;52.028;5.670;2023-12-20T07:53:31;10.00;99.90
27559;DHT22;15002;52.028;5.670;2023-12-20T07:55:56;10.00;99.90
27559;DHT22;15002;52.028;5.670;2023-12-20T07:58:22;10.00;99.90
27559;DHT22;15002;52.028;5.670;2023-12-20T08:00:48;9.90;99.90
27559;DHT22;15002;52.028;5.670;2023-12-20T08:03:13;9.90;99.90
27559;DHT22;15002;52.028;5.670;2023-12-20T08:05:39;9.80;99.90
27559;DHT22;15002;52.028;5.670;2023-12-20T08:08:06;9.80;99.90
27559;DHT22;15002;52.028;5.670;2023-12-20T08:10:32;9.80;99.90
27559;DHT22;15002;52.028;5.670;2023-12-20T08:12:57;9.90;99.90
27559;DHT22;15002;52.028;5.670;2023-12-20T08:15:23;9.80;99.90
27559;DHT22;15002;52.028;5.670;2023-12-20T08:17:49;10.00;99.90
27559;DHT22;15002;52.028;5.670;2023-12-20T08:20:16;9.80;99.90
27559;DHT22;15002;52.028;5.670;2023-12-20T08:22:42;9.90;99.90
27559;DHT22;15002;52.028;5.670;2023-12-20T08:25:08;9.80;99.90
27559;DHT22;15002;52.028;5.670;2023-12-20T08:27:38;9.80;99.90
27559;DHT22;15002;52.028;5.670;2023-12-20T08:30:03;9.90;99.90
27559;DHT22;15002;52.028;5.670;2023-12-20T08:32:29;10.00;99.90
27559;DHT22;15002;52.028;5.670;2023-12-20T08:34:55;9.80;99.90
27559;DHT22;15002;52.028;5.670;2023-12-20T08:37:21;9.90;99.90
27559;DHT22;15002;52.028;5.670;2023-12-20T08:39:46;10.00;99.90
27559;DHT22;15002;52.028;5.670;2023-12-20T08:42:12;10.10;99.90
27559;DHT22;15002;52.028;5.670;2023-12-20T08:44:37;10.10;99.90
27559;DHT22;15002;52.028;5.670;2023-12-20T08:47:03;10.10;99.90
27559;DHT22;15002;52.028;5.670;2023-12-20T08:49:29;10.00;99.90
27559;DHT22;15002;52.028;5.670;2023-12-20T08:51:54;10.10;99.90
27559;DHT22;15002;52.028;5.670;2023-12-20T08:54:20;10.20;99.90
27559;DHT22;15002;52.028;5.670;2023-12-20T08:56:46;9.90;99.90
27559;DHT22;15002;52.028;5.670;2023-12-20T08:59:11;10.10;99.90
27559;DHT22;15002;52.028;5.670;2023-12-20T09:01:37;9.90;99.90
27559;DHT22;15002;52.028;5.670;2023-12-20T09:04:03;10.30;99.90
27559;DHT22;15002;52.028;5.670;2023-12-20T09:06:29;10.40;99.90
27559;DHT22;15002;52.028;5.670;2023-12-20T09:08:54;10.20;99.90
27559;DHT22;15002;52.028;5.670;2023-12-20T09:11:20;10.10;99.90
27559;DHT22;15002;52.028;5.670;2023-12-20T09:13:46;10.10;99.90
27559;DHT22;15002;52.028;5.670;2023-12-20T09:16:11;10.00;99.90
27559;DHT22;15002;52.028;5.670;2023-12-20T09:18:38;10.00;99.90
27559;DHT22;15002;52.028;5.670;2023-12-20T09:21:04;10.20;99.90
27559;DHT22;15002;52.028;5.670;2023-12-20T09:23:29;10.00;99.90
27559;DHT22;15002;52.028;5.670;2023-12-20T09:25:55;10.10;99.90
27559;DHT22;15002;52.028;5.670;2023-12-20T09:28:21;9.90;99.90
27559;DHT22;15002;52.028;5.670;2023-12-20T09:30:46;9.90;99.90
27559;DHT22;15002;52.028;5.670;2023-12-20T09:33:13;9.80;99.90
27559;DHT22;15002;52.028;5.670;2023-12-20T09:35:39;9.90;99.90
27559;DHT22;15002;52.028;5.670;2023-12-20T09:38:05;9.60;99.90
27559;DHT22;15002;52.028;5.670;2023-12-20T09:40:32;9.60;99.90
27559;DHT22;15002;52.028;5.670;2023-12-20T09:43:03;9.80;99.90
27559;DHT22;15002;52.028;5.670;2023-12-20T09:45:30;9.80;99.90
27559;DHT22;15002;52.028;5.670;2023-12-20T09:47:58;9.90;99.90
27559;DHT22;15002;52.028;5.670;2023-12-20T09:50:24;10.00;99.90
27559;DHT22;15002;52.028;5.670;2023-12-20T09:52:51;9.90;99.90
27559;DHT22;15002;52.028;5.670;2023-12-20T09:55:20;10.20;99.90
27559;DHT22;15002;52.028;5.670;2023-12-20T09:57:47;10.10;99.90
27559;DHT22;15002;52.028;5.670;2023-12-20T10:00:14;10.10;99.90
27559;DHT22;15002;52.028;5.670;2023-12-20T10:02:45;10.40;99.90
27559;DHT22;15002;52.028;5.670;2023-12-20T10:05:16;10.40;99.90
27559;DHT22;15002;52.028;5.670;2023-12-20T10:07:44;10.60;99.90
27559;DHT22;15002;52.028;5.670;2023-12-20T10:10:10;10.70;99.90
27559;DHT22;15002;52.028;5.670;2023-12-20T10:12:38;10.80;99.90
27559;DHT22;15002;52.028;5.670;2023-12-20T10:15:04;11.00;99.90
27559;DHT22;15002;52.028;5.670;2023-12-20T10:17:30;11.10;99.90
27559;DHT22;15002;52.028;5.670;2023-12-20T10:19:57;11.10;99.90
27559;DHT22;15002;52.028;5.670;2023-12-20T10:22:23;11.10;99.90
27559;DHT22;15002;52.028;5.670;2023-12-20T10:24:49;11.20;99.90
27559;DHT22;15002;52.028;5.670;2023-12-20T10:27:17;11.10;99.90
27559;DHT22;15002;52.028;5.670;2023-12-20T10:29:44;11.10;99.90
27559;DHT22;15002;52.028;5.670;2023-12-20T10:32:25;11.00;99.90
27559;DHT22;15002;52.028;5.670;2023-12-20T10:34:55;11.10;99.90
27559;DHT22;15002;52.028;5.670;2023-12-20T10:37:22;11.00;99.90
27559;DHT22;15002;52.028;5.670;2023-12-20T10:39:50;11.00;99.90
27559;DHT22;15002;52.028;5.670;2023-12-20T10:42:18;11.30;99.90
27559;DHT22;15002;52.028;5.670;2023-12-20T10:44:46;11.20;99.90
27559;DHT22;15002;52.028;5.670;2023-12-20T10:47:13;11.00;99.90
27559;DHT22;15002;52.028;5.670;2023-12-20T10:49:39;11.20;99.90
27559;DHT22;15002;52.028;5.670;2023-12-20T10:52:06;11.20;99.90
27559;DHT22;15002;52.028;5.670;2023-12-20T10:54:32;11.30;99.90
27559;DHT22;15002;52.028;5.670;2023-12-20T10:56:58;11.40;99.90
27559;DHT22;15002;52.028;5.670;2023-12-20T10:59:27;11.60;99.90
27559;DHT22;15002;52.028;5.670;2023-12-20T11:01:54;11.80;99.90
27559;DHT22;15002;52.028;5.670;2023-12-20T11:04:31;11.80;99.90
27559;DHT22;15002;52.028;5.670;2023-12-20T11:07:11;11.50;99.90
27559;DHT22;15002;52.028;5.670;2023-12-20T11:09:48;11.60;99.90
27559;DHT22;15002;52.028;5.670;2023-12-20T11:12:41;11.70;99.90
27559;DHT22;15002;52.028;5.670;2023-12-20T11:15:10;11.80;99.90
27559;DHT22;15002;52.028;5.670;2023-12-20T11:17:39;11.90;99.90
27559;DHT22;15002;52.028;5.670;2023-12-20T11:20:07;11.90;99.90
27559;DHT22;15002;52.028;5.670;2023-12-20T11:22:34;11.90;99.90
27559;DHT22;15002;52.028;5.670;2023-12-20T11:25:08;12.10;99.90
27559;DHT22;15002;52.028;5.670;2023-12-20T11:27:34;12.20;99.90
27559;DHT22;15002;52.028;5.670;2023-12-20T11:30:03;12.20;99.90
27559;DHT22;15002;52.028;5.670;2023-12-20T11:32:31;12.30;99.90
27559;DHT22;15002;52.028;5.670;2023-12-20T11:37:34;12.30;99.90
27559;DHT22;15002;52.028;5.670;2023-12-20T11:40:02;12.30;99.90
27559;DHT22;15002;52.028;5.670;2023-12-20T11:42:28;12.30;99.90
27559;DHT22;15002;52.028;5.670;2023-12-20T11:44:57;12.20;99.90
27559;DHT22;15002;52.028;5.670;2023-12-20T11:47:24;12.20;99.90
27559;DHT22;15002;52.028;5.670;2023-12-20T11:49:51;12.20;99.90
27559;DHT22;15002;52.028;5.670;2023-12-20T11:52:17;12.20;99.90
27559;DHT22;15002;52.028;5.670;2023-12-20T11:54:42;11.80;99.90
27559;DHT22;15002;52.028;5.670;2023-12-20T11:57:08;11.70;99.90
27559;DHT22;15002;52.028;5.670;2023-12-20T11:59:34;12.00;99.90
27559;DHT22;15002;52.028;5.670;2023-12-20T12:02:01;12.00;99.90
27559;DHT22;15002;52.028;5.670;2023-12-20T12:04:27;12.00;99.90
27559;DHT22;15002;52.028;5.670;2023-12-20T12:06:53;12.00;99.90
27559;DHT22;15002;52.028;5.670;2023-12-20T12:09:19;12.10;99.90
27559;DHT22;15002;52.028;5.670;2023-12-20T12:11:45;12.10;99.90
27559;DHT22;15002;52.028;5.670;2023-12-20T12:14:11;12.10;99.90
27559;DHT22;15002;52.028;5.670;2023-12-20T12:16:37;12.30;99.90
27559;DHT22;15002;52.028;5.670;2023-12-20T12:19:02;12.30;99.90
27559;DHT22;15002;52.028;5.670;2023-12-20T12:21:29;12.40;99.90
27559;DHT22;15002;52.028;5.670;2023-12-20T12:24:08;12.20;99.90
27559;DHT22;15002;52.028;5.670;2023-12-20T12:26:34;12.10;99.90
27559;DHT22;15002;52.028;5.670;2023-12-20T12:29:00;12.20;99.90
27559;DHT22;15002;52.028;5.670;2023-12-20T12:31:26;12.10;99.90
27559;DHT22;15002;52.028;5.670;2023-12-20T12:33:52;12.20;99.90
27559;DHT22;15002;52.028;5.670;2023-12-20T12:36:17;12.20;99.90
27559;DHT22;15002;52.028;5.670;2023-12-20T12:38:43;12.30;99.90
27559;DHT22;15002;52.028;5.670;2023-12-20T12:41:10;12.30;99.90
27559;DHT22;15002;52.028;5.670;2023-12-20T12:43:37;12.30;99.90
27559;DHT22;15002;52.028;5.670;2023-12-20T12:46:03;12.40;99.90
27559;DHT22;15002;52.028;5.670;2023-12-20T12:48:29;12.50;99.90
27559;DHT22;15002;52.028;5.670;2023-12-20T12:50:54;12.50;99.90
27559;DHT22;15002;52.028;5.670;2023-12-20T12:53:24;12.40;99.90
27559;DHT22;15002;52.028;5.670;2023-12-20T12:55:50;12.50;99.90
27559;DHT22;15002;52.028;5.670;2023-12-20T12:58:16;12.50;99.90
27559;DHT22;15002;52.028;5.670;2023-12-20T13:00:42;12.60;99.90
27559;DHT22;15002;52.028;5.670;2023-12-20T13:03:07;12.60;99.90
27559;DHT22;15002;52.028;5.670;2023-12-20T13:05:34;12.60;99.90
27559;DHT22;15002;52.028;5.670;2023-12-20T13:07:59;12.50;99.90
27559;DHT22;15002;52.028;5.670;2023-12-20T13:10:25;12.60;99.90
27559;DHT22;15002;52.028;5.670;2023-12-20T13:12:51;12.30;99.90
27559;DHT22;15002;52.028;5.670;2023-12-20T13:15:17;12.30;99.90
27559;DHT22;15002;52.028;5.670;2023-12-20T13:17:42;12.40;99.90
27559;DHT22;15002;52.028;5.670;2023-12-20T13:20:08;12.20;99.90
27559;DHT22;15002;52.028;5.670;2023-12-20T13:22:34;12.40;99.90
27559;DHT22;15002;52.028;5.670;2023-12-20T13:24:59;12.20;99.90
27559;DHT22;15002;52.028;5.670;2023-12-20T13:27:25;12.50;99.90
27559;DHT22;15002;52.028;5.670;2023-12-20T13:29:51;12.40;99.90
27559;DHT22;15002;52.028;5.670;2023-12-20T13:32:16;12.40;99.90
27559;DHT22;15002;52.028;5.670;2023-12-20T13:34:44;12.30;99.90
27559;DHT22;15002;52.028;5.670;2023-12-20T13:37:09;12.20;99.90
27559;DHT22;15002;52.028;5.670;2023-12-20T13:39:35;12.40;99.90
27559;DHT22;15002;52.028;5.670;2023-12-20T13:42:01;12.10;99.90
27559;DHT22;15002;52.028;5.670;2023-12-20T13:44:26;12.00;99.90
27559;DHT22;15002;52.028;5.670;2023-12-20T13:46:52;12.20;99.90
27559;DHT22;15002;52.028;5.670;2023-12-20T13:49:18;12.30;99.90
27559;DHT22;15002;52.028;5.670;2023-12-20T13:51:43;12.20;99.90
27559;DHT22;15002;52.028;5.670;2023-12-20T13:54:09;12.50;99.90
27559;DHT22;15002;52.028;5.670;2023-12-20T13:56:36;12.60;99.90
27559;DHT22;15002;52.028;5.670;2023-12-20T13:59:02;12.50;99.90
27559;DHT22;15002;52.028;5.670;2023-12-20T14:01:27;12.40;99.90
27559;DHT22;15002;52.028;5.670;2023-12-20T14:03:53;12.20;99.90
27559;DHT22;15002;52.028;5.670;2023-12-20T14:06:18;12.00;99.90
27559;DHT22;15002;52.028;5.670;2023-12-20T14:08:44;12.10;99.90
27559;DHT22;15002;52.028;5.670;2023-12-20T14:11:10;12.40;99.90
27559;DHT22;15002;52.028;5.670;2023-12-20T14:13:36;12.30;99.90
27559;DHT22;15002;52.028;5.670;2023-12-20T14:16:02;12.20;99.90
27559;DHT22;15002;52.028;5.670;2023-12-20T14:18:29;12.10;99.90
27559;DHT22;15002;52.028;5.670;2023-12-20T14:20:56;12.10;99.90
27559;DHT22;15002;52.028;5.670;2023-12-20T14:23:21;12.30;99.90
27559;DHT22;15002;52.028;5.670;2023-12-20T14:25:48;12.30;99.90
27559;DHT22;15002;52.028;5.670;2023-12-20T14:28:14;12.20;99.90
27559;DHT22;15002;52.028;5.670;2023-12-20T14:30:40;12.20;99.90
27559;DHT22;15002;52.028;5.670;2023-12-20T14:33:06;12.30;99.90
27559;DHT22;15002;52.028;5.670;2023-12-20T14:35:32;12.00;99.90
27559;DHT22;15002;52.028;5.670;2023-12-20T14:37:58;12.20;99.90
27559;DHT22;15002;52.028;5.670;2023-12-20T14:40:23;12.40;99.90
27559;DHT22;15002;52.028;5.670;2023-12-20T14:42:49;12.30;99.90
27559;DHT22;15002;52.028;5.670;2023-12-20T14:45:15;12.30;99.90
27559;DHT22;15002;52.028;5.670;2023-12-20T14:47:44;12.40;99.90
27559;DHT22;15002;52.028;5.670;2023-12-20T14:50:13;12.30;99.90
27559;DHT22;15002;52.028;5.670;2023-12-20T14:52:43;12.20;99.90
27559;DHT22;15002;52.028;5.670;2023-12-20T14:55:10;12.30;99.90
27559;DHT22;15002;52.028;5.670;2023-12-20T14:57:36;12.00;99.90
27559;DHT22;15002;52.028;5.670;2023-12-20T15:00:02;12.00;99.90
27559;DHT22;15002;52.028;5.670;2023-12-20T15:02:27;12.00;99.90
27559;DHT22;15002;52.028;5.670;2023-12-20T15:04:53;11.70;99.90
27559;DHT22;15002;52.028;5.670;2023-12-20T15:07:19;11.60;99.90
27559;DHT22;15002;52.028;5.670;2023-12-20T15:09:45;11.50;99.90
27559;DHT22;15002;52.028;5.670;2023-12-20T15:12:12;11.50;99.90
27559;DHT22;15002;52.028;5.670;2023-12-20T15:14:38;11.60;99.90
27559;DHT22;15002;52.028;5.670;2023-12-20T15:17:03;11.30;99.90
27559;DHT22;15002;52.028;5.670;2023-12-20T15:19:30;11.40;99.90
27559;DHT22;15002;52.028;5.670;2023-12-20T15:21:56;11.50;99.90
27559;DHT22;15002;52.028;5.670;2023-12-20T15:24:24;11.40;99.90
27559;DHT22;15002;52.028;5.670;2023-12-20T15:27:02;11.50;99.90
27559;DHT22;15002;52.028;5.670;2023-12-20T15:29:28;11.60;99.90
27559;DHT22;15002;52.028;5.670;2023-12-20T15:31:54;11.70;99.90
27559;DHT22;15002;52.028;5.670;2023-12-20T15:34:19;11.70;99.90
27559;DHT22;15002;52.028;5.670;2023-12-20T15:36:45;11.50;99.90